Time;durP1;ratioP1;P1;durP2;ratioP2;P2;SDS_P1;SDS_P2;PMS_P1;PMS_P2;Temp;Humidity;BMP_temperature;BMP_pressure;BME280_temperature;BME280_humidity;BME280_pressure;Samples;Min_cycle;Max_cycle;Signal;HPM_P1;HPM_P2
2022/09/02 00:01:01;;;;;;;2.30;1.30;;;;;;;16.72;56.93;101442.03;5075004;28;20024;-86
2022/09/02 00:03:29;;;;;;;3.60;1.40;;;;;;;16.70;56.68;101444.00;5056311;28;20266;-85
2022/09/02 00:05:56;;;;;;;4.70;1.67;;;;;;;16.68;56.92;101430.28;5060514;28;20028;-86
2022/09/02 00:08:25;;;;;;;3.53;1.60;;;;;;;16.67;56.57;101436.53;5054512;28;20123;-86
2022/09/02 00:10:51;;;;;;;5.10;1.10;;;;;;;16.65;56.69;101438.53;5054948;28;20137;-86
2022/09/02 00:13:18;;;;;;;3.55;1.38;;;;;;;16.63;57.00;101437.06;5061438;28;20497;-83
2022/09/02 00:15:45;;;;;;;2.13;1.00;;;;;;;16.62;56.67;101432.84;5070947;28;20600;-85
2022/09/02 00:18:11;;;;;;;3.65;1.25;;;;;;;16.59;56.63;101425.34;5077369;28;20519;-86
2022/09/02 00:20:40;;;;;;;2.35;1.20;;;;;;;16.54;56.65;101429.31;5074610;28;20058;-86
2022/09/02 00:23:07;;;;;;;3.85;1.60;;;;;;;16.53;56.77;101430.28;5079594;28;20123;-85
2022/09/02 00:25:34;;;;;;;4.10;1.20;;;;;;;16.47;57.13;101432.81;5074212;28;20088;-85
2022/09/02 00:27:59;;;;;;;3.30;1.50;;;;;;;16.38;57.62;101424.22;5064125;28;20028;-86
2022/09/02 00:30:27;;;;;;;4.15;1.25;;;;;;;16.35;57.83;101416.75;5053492;28;20032;-85
2022/09/02 00:32:53;;;;;;;2.13;1.20;;;;;;;16.26;58.29;101417.81;5082186;28;20042;-86
2022/09/02 00:35:19;;;;;;;4.13;1.27;;;;;;;16.18;58.90;101423.13;5078185;28;20255;-86
2022/09/02 00:37:44;;;;;;;2.65;1.40;;;;;;;16.04;59.84;101417.69;5075736;28;20051;-85
2022/09/02 00:40:10;;;;;;;2.40;1.60;;;;;;;15.96;60.00;101420.38;5072391;28;20040;-85
2022/09/02 00:42:37;;;;;;;2.80;1.60;;;;;;;15.90;60.18;101419.28;5069125;28;20482;-86
2022/09/02 00:45:05;;;;;;;2.42;1.20;;;;;;;15.90;60.00;101418.47;5062621;28;20028;-85
2022/09/02 00:47:31;;;;;;;4.22;1.60;;;;;;;15.91;59.94;101412.25;5055599;28;20084;-85
2022/09/02 00:49:58;;;;;;;3.28;1.58;;;;;;;15.93;59.81;101412.88;5076802;28;20045;-85
2022/09/02 00:52:29;;;;;;;3.80;1.50;;;;;;;15.85;59.75;101418.97;5074263;28;20036;-86
2022/09/02 00:55:03;;;;;;;3.28;1.50;;;;;;;15.68;60.47;101407.00;5079476;28;20677;-86
2022/09/02 00:57:32;;;;;;;1.75;1.23;;;;;;;15.54;60.89;101405.97;5074237;28;20039;-86
2022/09/02 01:00:06;;;;;;;3.22;1.35;;;;;;;15.40;61.26;101410.13;5074140;28;20092;-85
2022/09/02 01:02:33;;;;;;;2.13;1.38;;;;;;;15.32;61.45;101412.78;5060893;28;20066;-84
2022/09/02 01:05:02;;;;;;;2.10;1.40;;;;;;;15.26;61.73;101403.03;5091381;28;20524;-85
2022/09/02 01:07:32;;;;;;;5.85;1.60;;;;;;;15.24;61.73;101402.38;5061624;28;20039;-86
2022/09/02 01:10:00;;;;;;;4.63;1.40;;;;;;;15.22;61.99;101412.19;5075496;28;20043;-86
2022/09/02 01:12:29;;;;;;;3.67;1.35;;;;;;;15.21;62.11;101400.13;5060551;28;20100;-86
2022/09/02 01:14:56;;;;;;;3.58;1.52;;;;;;;15.22;62.05;101405.19;5077554;28;20488;-85
2022/09/02 01:17:24;;;;;;;5.10;1.48;;;;;;;15.20;62.20;101404.53;5075409;28;20024;-86
2022/09/02 01:19:53;;;;;;;3.08;1.60;;;;;;;15.17;62.68;101405.66;5075989;28;20036;-85
2022/09/02 01:22:23;;;;;;;2.63;1.20;;;;;;;15.15;62.53;101401.63;5077913;28;20040;-85
2022/09/02 01:24:49;;;;;;;3.30;1.55;;;;;;;15.12;62.77;101409.78;5071062;28;20040;-86
2022/09/02 01:27:20;;;;;;;1.98;1.40;;;;;;;15.08;63.15;101411.13;5081787;28;20035;-85
2022/09/02 01:29:50;;;;;;;4.80;1.70;;;;;;;14.99;63.26;101400.72;5066351;28;20036;-85
2022/09/02 01:32:15;;;;;;;4.25;1.30;;;;;;;14.91;63.31;101399.94;5077715;28;20028;-86
2022/09/02 01:34:41;;;;;;;3.95;1.52;;;;;;;14.82;63.68;101403.56;5072159;28;20035;-85
2022/09/02 01:37:07;;;;;;;4.55;1.50;;;;;;;14.77;63.64;101396.25;5079353;28;20024;-85
2022/09/02 01:39:32;;;;;;;5.45;1.27;;;;;;;14.75;63.86;101398.22;5073728;28;20042;-84
2022/09/02 01:41:59;;;;;;;3.00;1.70;;;;;;;14.73;64.07;101395.75;5062872;28;20028;-85
2022/09/02 01:44:26;;;;;;;4.70;2.03;;;;;;;14.81;63.77;101388.88;5073368;28;20109;-85
2022/09/02 01:46:53;;;;;;;3.47;1.83;;;;;;;14.88;63.62;101398.47;5073420;28;20071;-85
2022/09/02 01:49:19;;;;;;;3.70;1.60;;;;;;;14.95;63.56;101391.56;5071275;28;20028;-85
2022/09/02 01:51:46;;;;;;;3.17;1.52;;;;;;;15.01;63.19;101392.69;5074930;28;20020;-85
2022/09/02 01:54:12;;;;;;;4.13;1.35;;;;;;;15.06;62.87;101392.19;5068838;28;20036;-85
2022/09/02 01:56:37;;;;;;;2.33;1.30;;;;;;;15.10;62.54;101391.66;5090999;28;20340;-86
2022/09/02 01:59:06;;;;;;;3.58;1.20;;;;;;;15.13;62.16;101395.75;5066191;28;20024;-85
2022/09/02 02:01:33;;;;;;;4.72;1.02;;;;;;;15.17;62.34;101389.19;5053767;28;20616;-86
2022/09/02 02:04:00;;;;;;;6.88;1.40;;;;;;;15.19;62.43;101387.22;5064870;28;20346;-86
2022/09/02 02:06:26;;;;;;;2.92;1.40;;;;;;;15.22;62.42;101393.88;5062067;28;20028;-85
2022/09/02 02:08:53;;;;;;;3.42;1.40;;;;;;;15.18;62.81;101390.81;5072792;28;20020;-85
2022/09/02 02:11:21;;;;;;;4.50;1.45;;;;;;;15.16;63.09;101390.16;5062699;28;20093;-85
2022/09/02 02:13:50;;;;;;;2.63;1.50;;;;;;;15.06;64.08;101393.00;5078252;28;20035;-85
2022/09/02 02:16:20;;;;;;;2.33;1.33;;;;;;;14.98;64.84;101388.63;5062372;28;20047;-85
2022/09/02 02:18:46;;;;;;;1.98;1.25;;;;;;;14.97;64.98;101389.63;5062064;28;20058;-85
2022/09/02 02:21:12;;;;;;;3.10;1.23;;;;;;;14.97;64.70;101396.63;5062516;28;20028;-85
2022/09/02 02:23:38;;;;;;;5.22;1.27;;;;;;;14.98;64.70;101388.63;5061969;28;20040;-85
2022/09/02 02:26:05;;;;;;;4.15;1.42;;;;;;;15.03;64.24;101388.13;5066484;28;20020;-85
2022/09/02 02:28:31;;;;;;;3.65;1.42;;;;;;;15.05;64.03;101388.78;5073697;28;21195;-85
2022/09/02 02:30:59;;;;;;;2.08;1.42;;;;;;;15.06;63.79;101389.59;5053444;28;20024;-85
2022/09/02 02:33:27;;;;;;;2.50;1.20;;;;;;;15.07;63.67;101384.19;5062831;28;20032;-85
2022/09/02 02:35:55;;;;;;;3.22;1.27;;;;;;;15.08;63.63;101387.59;5078044;28;20028;-85
2022/09/02 02:38:22;;;;;;;2.63;1.42;;;;;;;15.09;63.78;101392.66;5059285;28;20060;-85
2022/09/02 02:40:52;;;;;;;4.95;1.52;;;;;;;15.10;63.40;101385.63;5077693;28;20028;-85
2022/09/02 02:43:19;;;;;;;2.70;1.42;;;;;;;15.09;63.65;101386.63;5064297;28;20032;-85
2022/09/02 02:45:45;;;;;;;2.75;1.38;;;;;;;15.07;63.66;101381.59;5059042;28;20040;-85
2022/09/02 02:48:12;;;;;;;1.15;0.90;;;;;;;15.06;63.99;101385.16;5072947;28;20036;-85
2022/09/02 02:50:39;;;;;;;3.83;1.27;;;;;;;15.06;63.83;101379.94;5078413;28;20339;-83
2022/09/02 02:53:05;;;;;;;5.50;1.52;;;;;;;15.07;63.83;101383.34;5075503;28;20031;-85
2022/09/02 02:55:31;;;;;;;3.70;1.20;;;;;;;15.07;63.70;101385.97;5066432;28;20036;-86
2022/09/02 02:57:56;;;;;;;5.25;1.50;;;;;;;15.06;63.64;101376.53;5075631;28;20031;-85
2022/09/02 03:00:25;;;;;;;4.75;1.35;;;;;;;15.05;63.54;101382.72;5070714;28;20043;-85
2022/09/02 03:02:59;;;;;;;1.85;1.48;;;;;;;15.02;63.34;101378.66;5060455;28;20020;-85
2022/09/02 03:05:25;;;;;;;3.65;1.40;;;;;;;14.96;64.06;101379.34;5059628;28;20119;-85
2022/09/02 03:07:51;;;;;;;3.90;1.65;;;;;;;14.95;64.07;101377.72;5063545;28;20036;-85
2022/09/02 03:10:17;;;;;;;5.63;1.50;;;;;;;14.93;64.37;101374.47;5073319;28;20043;-85
2022/09/02 03:12:46;;;;;;;1.88;1.20;;;;;;;14.92;64.44;101368.44;5060005;28;20028;-85
2022/09/02 03:15:15;;;;;;;4.85;1.95;;;;;;;14.87;64.80;101375.94;5075750;28;20058;-85
2022/09/02 03:17:45;;;;;;;3.65;1.40;;;;;;;14.88;64.76;101374.16;5058681;28;20035;-86
2022/09/02 03:20:14;;;;;;;2.90;1.45;;;;;;;14.87;65.08;101370.72;5061865;28;20028;-85
2022/09/02 03:22:43;;;;;;;7.80;2.10;;;;;;;14.85;65.36;101372.69;5057974;28;20029;-83
2022/09/02 03:25:11;;;;;;;2.70;1.40;;;;;;;14.85;65.26;101370.09;5077235;28;20101;-85
2022/09/02 03:27:39;;;;;;;2.70;1.50;;;;;;;14.84;65.15;101362.41;5061430;28;20534;-85
2022/09/02 03:30:09;;;;;;;2.78;1.75;;;;;;;14.80;65.38;101361.94;5071235;28;20029;-85
2022/09/02 03:32:36;;;;;;;1.90;1.55;;;;;;;14.78;65.82;101366.53;5084938;28;20032;-85
2022/09/02 03:35:06;;;;;;;4.68;1.52;;;;;;;14.77;66.01;101373.56;5076465;28;20024;-86
2022/09/02 03:37:33;;;;;;;1.80;1.48;;;;;;;14.77;66.14;101367.53;5058787;28;20027;-85
2022/09/02 03:40:02;;;;;;;4.20;1.33;;;;;;;14.78;66.27;101371.75;5060753;28;20049;-85
2022/09/02 03:42:30;;;;;;;6.95;1.50;;;;;;;14.75;66.28;101359.84;5074097;28;20067;-84
2022/09/02 03:44:55;;;;;;;5.55;1.50;;;;;;;14.74;66.32;101358.22;5076916;28;20341;-85
2022/09/02 03:47:21;;;;;;;4.15;1.65;;;;;;;14.74;66.20;101362.63;5070167;28;20036;-86
2022/09/02 03:49:47;;;;;;;3.53;1.67;;;;;;;14.73;66.17;101359.22;5071060;28;20040;-85
2022/09/02 03:52:12;;;;;;;2.45;1.55;;;;;;;14.66;66.87;101358.25;5072668;28;20082;-85
2022/09/02 03:54:38;;;;;;;4.50;1.40;;;;;;;14.61;67.12;101357.94;5060229;28;20024;-86
2022/09/02 03:57:04;;;;;;;5.55;1.85;;;;;;;14.56;67.46;101358.44;5071340;28;20024;-85
2022/09/02 03:59:30;;;;;;;3.75;1.27;;;;;;;14.51;67.90;101346.88;5077069;28;20032;-84
2022/09/02 04:01:56;;;;;;;2.85;1.42;;;;;;;14.48;68.13;101360.25;5081172;28;20035;-86
2022/09/02 04:04:21;;;;;;;3.70;1.50;;;;;;;14.48;68.23;101348.00;5083424;28;20032;-85
2022/09/02 04:06:49;;;;;;;4.65;1.73;;;;;;;14.51;67.95;101350.28;5071466;28;20048;-85
2022/09/02 04:09:14;;;;;;;5.25;1.65;;;;;;;14.52;67.64;101357.16;5065749;28;20051;-83
2022/09/02 04:11:41;;;;;;;4.78;1.40;;;;;;;14.54;67.26;101349.13;5080805;28;20028;-85
2022/09/02 04:14:08;;;;;;;2.55;1.42;;;;;;;14.54;67.37;101351.75;5080278;28;20059;-85
2022/09/02 04:16:34;;;;;;;1.83;1.20;;;;;;;14.56;67.30;101355.00;5079170;28;20028;-82
2022/09/02 04:19:04;;;;;;;4.43;1.35;;;;;;;14.59;66.74;101354.69;5064348;28;20020;-85
2022/09/02 04:21:36;;;;;;;2.08;1.45;;;;;;;14.59;66.60;101352.91;5078127;28;20034;-85
2022/09/02 04:24:03;;;;;;;4.03;1.48;;;;;;;14.61;66.39;101352.72;5053220;28;20123;-85
2022/09/02 04:26:28;;;;;;;2.20;1.20;;;;;;;14.60;66.04;101351.94;5064111;28;20135;-85
2022/09/02 04:28:56;;;;;;;5.05;1.40;;;;;;;14.59;66.16;101349.47;5067039;28;20029;-85
2022/09/02 04:31:24;;;;;;;7.20;1.65;;;;;;;14.57;66.00;101352.25;5077782;28;20023;-85
2022/09/02 04:33:52;;;;;;;2.85;1.30;;;;;;;14.56;65.96;101342.78;5067138;28;20032;-85
2022/09/02 04:36:19;;;;;;;3.03;1.55;;;;;;;14.55;65.89;101345.56;5079088;28;20059;-83
2022/09/02 04:38:45;;;;;;;7.10;1.70;;;;;;;14.53;65.92;101347.53;5060867;28;20039;-84
2022/09/02 04:41:19;;;;;;;2.40;1.23;;;;;;;14.49;66.30;101352.25;5064457;28;20028;-85
2022/09/02 04:43:46;;;;;;;2.00;1.20;;;;;;;14.48;65.85;101348.00;5061321;28;20036;-85
2022/09/02 04:46:13;;;;;;;4.07;1.45;;;;;;;14.48;66.27;101341.97;5066890;28;20036;-85
2022/09/02 04:48:42;;;;;;;2.80;1.35;;;;;;;14.47;66.30;101345.59;5076375;28;20024;-85
2022/09/02 04:51:15;;;;;;;2.78;1.17;;;;;;;14.47;66.08;101341.19;5065138;28;20050;-85
2022/09/02 04:53:41;;;;;;;;;;;;;;;14.47;66.04;101350.81;5070857;28;20165;-85
2022/09/02 04:56:11;;;;;;;3.05;1.55;;;;;;;14.48;66.03;101342.78;5065857;28;19922;-85
2022/09/02 04:58:37;;;;;;;4.68;1.48;;;;;;;14.47;65.59;101346.41;5078097;28;20099;-84
2022/09/02 05:01:09;;;;;;;4.60;1.45;;;;;;;14.47;66.01;101350.81;5076344;28;20028;-85
2022/09/02 05:03:36;;;;;;;4.83;1.20;;;;;;;14.46;65.95;101347.38;5063746;28;20664;-85
2022/09/02 05:06:05;;;;;;;1.60;1.15;;;;;;;14.47;66.01;101356.03;5080215;28;20062;-84
2022/09/02 05:08:35;;;;;;;4.03;1.05;;;;;;;14.45;66.31;101344.91;5059937;28;20039;-85
2022/09/02 05:11:08;;;;;;;6.53;1.20;;;;;;;14.46;66.15;101349.16;5062866;28;20142;-85
2022/09/02 05:13:34;;;;;;;;;;;;;;;14.49;66.11;101348.84;5064057;28;20316;-84
2022/09/02 05:16:00;;;;;;;2.20;1.17;;;;;;;14.48;66.10;101345.41;5062024;28;19920;-85
2022/09/02 05:18:26;;;;;;;4.25;1.08;;;;;;;14.51;66.02;101345.06;5054977;28;20043;-85
2022/09/02 05:20:52;;;;;;;4.05;1.30;;;;;;;14.51;66.29;101347.69;5063591;28;20040;-84
2022/09/02 05:23:18;;;;;;;7.97;1.42;;;;;;;14.52;66.34;101344.09;5060608;28;20047;-84
2022/09/02 05:25:45;;;;;;;3.10;1.15;;;;;;;14.50;66.52;101348.66;5064505;28;20027;-85
2022/09/02 05:28:12;;;;;;;5.57;1.20;;;;;;;14.51;66.55;101349.47;5074278;28;20025;-86
2022/09/02 05:30:40;;;;;;;4.28;1.00;;;;;;;14.53;66.11;101347.53;5060335;28;20029;-85
2022/09/02 05:33:07;;;;;;;4.00;1.42;;;;;;;14.55;66.04;101348.97;5047087;28;20147;-86
2022/09/02 05:35:40;;;;;;;2.17;1.23;;;;;;;14.57;66.19;101351.44;5062165;28;20722;-84
2022/09/02 05:38:07;;;;;;;2.00;1.00;;;;;;;14.60;66.46;101345.91;5053479;28;20155;-85
2022/09/02 05:40:35;;;;;;;1.95;1.08;;;;;;;14.64;66.22;101351.59;5059930;28;20050;-85
2022/09/02 05:43:00;;;;;;;2.75;1.00;;;;;;;14.70;65.87;101350.91;5060525;28;20082;-85
2022/09/02 05:45:26;;;;;;;2.88;1.08;;;;;;;14.73;65.68;101345.34;5065929;28;20028;-84
2022/09/02 05:47:52;;;;;;;6.07;1.30;;;;;;;14.76;65.95;101348.41;5056130;28;20016;-85
2022/09/02 05:50:19;;;;;;;1.60;1.05;;;;;;;14.81;65.41;101342.72;5064354;28;20759;-85
2022/09/02 05:52:50;;;;;;;3.60;1.00;;;;;;;14.85;65.58;101346.59;5057736;28;20039;-85
2022/09/02 05:55:17;;;;;;;3.95;1.77;;;;;;;14.89;65.46;101347.88;5059262;28;20036;-84
2022/09/02 05:57:44;;;;;;;2.40;1.10;;;;;;;14.94;65.30;101348.19;5053114;28;20500;-84
2022/09/02 06:00:11;;;;;;;2.22;1.35;;;;;;;15.03;64.91;101341.13;5066087;28;20037;-84
2022/09/02 06:02:40;;;;;;;3.88;1.52;;;;;;;15.10;64.32;101342.03;5069704;28;20445;-84
2022/09/02 06:05:10;;;;;;;2.15;1.27;;;;;;;15.15;64.07;101344.97;5056200;28;20020;-85
2022/09/02 06:07:37;;;;;;;2.70;1.30;;;;;;;15.18;63.96;101343.78;5056386;28;20038;-84
2022/09/02 06:10:04;;;;;;;5.60;1.10;;;;;;;15.34;63.76;101340.28;5048725;28;20042;-84
2022/09/02 06:12:32;;;;;;;4.65;1.00;;;;;;;15.48;62.41;101338.69;5070295;28;20040;-84
2022/09/02 06:14:57;;;;;;;3.40;1.45;;;;;;;15.62;62.12;101343.16;5068429;28;20032;-83
2022/09/02 06:17:26;;;;;;;3.53;1.23;;;;;;;15.61;62.10;101338.91;5067934;28;20052;-84
2022/09/02 06:19:52;;;;;;;3.13;1.40;;;;;;;15.88;60.72;101344.59;5049427;28;20499;-82
2022/09/02 06:22:19;;;;;;;5.55;1.58;;;;;;;15.93;60.43;101343.06;5054913;28;20063;-85
2022/09/02 06:24:47;;;;;;;6.70;1.30;;;;;;;15.93;60.44;101344.88;5067422;28;20029;-84
2022/09/02 06:27:18;;;;;;;4.35;1.20;;;;;;;16.11;59.22;101349.78;5055665;28;20089;-85
2022/09/02 06:29:46;;;;;;;1.98;1.10;;;;;;;16.20;59.28;101346.09;5072184;28;20024;-83
2022/09/02 06:32:17;;;;;;;5.63;1.30;;;;;;;16.24;58.76;101342.13;5069761;28;20046;-85
2022/09/02 06:34:43;;;;;;;5.78;1.42;;;;;;;16.26;58.64;101344.56;5067350;28;20661;-85
2022/09/02 06:37:09;;;;;;;6.47;1.60;;;;;;;16.23;58.42;101348.34;5069497;28;20031;-84
2022/09/02 06:39:42;;;;;;;5.43;1.60;;;;;;;16.39;58.37;101341.28;5061209;28;20040;-85
2022/09/02 06:42:09;;;;;;;8.52;2.33;;;;;;;16.38;58.20;101347.53;5047976;28;20028;-85
2022/09/02 06:44:43;;;;;;;12.73;2.17;;;;;;;16.39;58.64;101341.28;5062839;28;20043;-85
2022/09/02 06:47:08;;;;;;;11.07;1.70;;;;;;;16.40;58.75;101343.72;5051672;28;20477;-84
2022/09/02 06:49:34;;;;;;;5.97;1.27;;;;;;;16.29;59.86;101339.78;5051890;28;20040;-84
2022/09/02 06:52:00;;;;;;;3.65;1.50;;;;;;;16.33;59.54;101335.81;5053282;28;20035;-84
2022/09/02 06:54:30;;;;;;;4.93;1.48;;;;;;;16.33;59.25;101342.81;5051796;28;20039;-84
2022/09/02 06:57:05;;;;;;;8.25;1.77;;;;;;;16.34;59.20;101337.41;5062612;28;20111;-85
2022/09/02 06:59:32;;;;;;;8.57;2.78;;;;;;;16.33;59.43;101338.44;5039636;28;20028;-85
2022/09/02 07:01:57;;;;;;;5.03;1.42;;;;;;;16.45;59.26;101341.38;5067762;28;20033;-85
2022/09/02 07:07:11;;;;;;;5.00;1.10;;;;;;;16.69;58.09;101336.88;5077317;28;20028;-85
2022/09/02 07:09:44;;;;;;;6.40;1.55;;;;;;;16.84;58.25;101332.44;5063481;28;20035;-86
2022/09/02 07:12:18;;;;;;;5.10;1.55;;;;;;;16.92;57.52;101332.31;5042924;28;20067;-84
2022/09/02 07:14:53;;;;;;;6.60;1.42;;;;;;;17.16;56.96;101325.13;5064139;28;20032;-85
2022/09/02 07:17:33;;;;;;;4.20;1.50;;;;;;;17.29;56.82;101320.00;5065021;28;20055;-83
2022/09/02 07:20:05;;;;;;;7.35;1.20;;;;;;;17.73;55.66;101318.13;5048568;28;20081;-84
2022/09/02 07:22:37;;;;;;;3.33;1.50;;;;;;;18.11;54.78;101315.19;5052095;28;20431;-84
2022/09/02 07:25:04;;;;;;;3.63;1.20;;;;;;;19.02;52.32;101312.34;5052099;28;20028;-83
2022/09/02 07:27:30;;;;;;;6.55;1.42;;;;;;;18.75;51.62;101307.97;5061367;28;20024;-84
2022/09/02 07:29:56;;;;;;;3.42;1.10;;;;;;;18.60;52.98;101308.94;5069828;28;20051;-84
2022/09/02 07:32:22;;;;;;;5.47;1.40;;;;;;;18.77;52.85;101300.72;5066434;28;20111;-84
2022/09/02 07:34:59;;;;;;;5.13;1.30;;;;;;;18.85;53.14;101304.00;5071136;28;21800;-84
2022/09/02 07:37:25;;;;;;;3.20;1.67;;;;;;;18.91;53.48;101302.41;5072354;28;20043;-83
2022/09/02 07:39:52;;;;;;;3.25;1.30;;;;;;;19.39;52.62;101307.50;5067385;28;20063;-84
2022/09/02 07:42:18;;;;;;;6.57;1.70;;;;;;;20.53;50.35;101292.31;5062585;28;20039;-83
2022/09/02 07:44:45;;;;;;;6.35;1.17;;;;;;;21.12;48.18;101294.81;5067063;28;20040;-86
2022/09/02 07:47:11;;;;;;;6.93;1.13;;;;;;;21.42;46.52;101295.00;5058848;28;20055;-83
2022/09/02 07:49:38;;;;;;;12.30;1.33;;;;;;;21.77;45.40;101283.94;5060641;28;20138;-84
2022/09/02 07:52:04;;;;;;;7.63;1.55;;;;;;;21.86;44.70;101293.19;5061347;28;20654;-83
2022/09/02 07:54:31;;;;;;;5.15;1.40;;;;;;;21.63;44.85;101300.94;5059279;28;20108;-85
2022/09/02 07:56:57;;;;;;;3.67;1.20;;;;;;;21.12;45.67;101289.56;5061272;28;20020;-84
2022/09/02 07:59:23;;;;;;;2.28;1.27;;;;;;;21.22;45.65;101289.88;5077700;28;20089;-84
2022/09/02 08:01:54;;;;;;;3.05;1.30;;;;;;;21.72;45.20;101295.16;5071534;28;20622;-85
2022/09/02 08:04:23;;;;;;;4.57;1.30;;;;;;;22.11;44.22;101295.75;5080617;28;20551;-83
2022/09/02 08:06:51;;;;;;;7.10;1.48;;;;;;;22.73;42.90;101292.16;5056241;28;20055;-83
2022/09/02 08:09:18;;;;;;;1.98;1.20;;;;;;;22.76;42.69;101289.06;5071631;28;20535;-85
2022/09/02 08:11:46;;;;;;;4.03;1.67;;;;;;;22.75;41.72;101290.09;5069585;28;20227;-84
2022/09/02 08:14:16;;;;;;;5.75;1.48;;;;;;;23.03;42.08;101289.50;5052126;28;20444;-84
2022/09/02 08:16:43;;;;;;;11.15;1.85;;;;;;;23.51;41.53;101280.56;5067563;28;20055;-83
2022/09/02 08:19:09;;;;;;;8.70;1.75;;;;;;;23.48;41.00;101290.81;5051869;28;20035;-85
2022/09/02 08:21:35;;;;;;;2.67;1.30;;;;;;;23.03;41.29;101284.22;5074930;28;20032;-84
2022/09/02 08:24:01;;;;;;;2.75;1.45;;;;;;;23.58;40.44;101282.28;5078944;28;20043;-85
2022/09/02 08:26:27;;;;;;;6.07;1.45;;;;;;;23.74;40.19;101275.50;5060110;28;20044;-84
2022/09/02 08:28:53;;;;;;;5.57;1.85;;;;;;;23.90;40.27;101280.09;5064245;28;20036;-83
2022/09/02 08:31:19;;;;;;;10.27;1.58;;;;;;;23.87;39.77;101276.09;5067071;28;20028;-84
2022/09/02 08:33:44;;;;;;;1.38;1.02;;;;;;;24.39;39.99;101272.59;5073121;28;21954;-83
2022/09/02 08:36:13;;;;;;;7.20;1.92;;;;;;;24.79;39.42;101276.22;5073258;28;20044;-82
2022/09/02 08:38:38;;;;;;;2.90;1.50;;;;;;;25.37;38.58;101268.94;5057452;28;20091;-84
2022/09/02 08:41:20;;;;;;;2.22;1.30;;;;;;;24.48;38.44;101280.97;5056013;28;20105;-85
2022/09/02 08:43:46;;;;;;;2.75;1.35;;;;;;;24.53;38.44;101275.00;5063429;28;20052;-81
2022/09/02 08:46:16;;;;;;;5.85;1.50;;;;;;;24.74;38.59;101271.66;5058949;28;20038;-83
2022/09/02 08:48:56;;;;;;;3.58;1.40;;;;;;;25.31;37.89;101262.75;5071406;28;20036;-82
2022/09/02 08:51:24;;;;;;;2.95;1.02;;;;;;;25.62;37.44;101263.19;5070013;28;20065;-83
2022/09/02 08:54:01;;;;;;;3.80;1.30;;;;;;;25.48;36.99;101257.41;5050876;28;20560;-83
2022/09/02 08:56:27;;;;;;;3.67;1.27;;;;;;;25.32;37.42;101266.22;5056366;28;20520;-85
2022/09/02 08:58:53;;;;;;;3.67;1.05;;;;;;;25.28;37.78;101265.91;5075346;28;20028;-85
2022/09/02 09:01:49;;;;;;;4.97;1.33;;;;;;;25.50;37.04;101267.78;5070202;28;20036;-84
2022/09/02 09:04:57;;;;;;;4.47;1.33;;;;;;;25.01;37.40;101263.06;5050119;28;20028;-88
2022/09/02 09:07:45;;;;;;;7.75;1.40;;;;;;;24.99;38.04;101265.94;5053624;28;20052;-85
2022/09/02 09:10:27;;;;;;;3.70;1.10;;;;;;;25.35;37.09;101257.75;5046265;28;20528;-85
2022/09/02 09:13:02;;;;;;;2.05;1.40;;;;;;;25.44;36.81;101269.56;5072722;28;20058;-84
2022/09/02 09:15:46;;;;;;;6.03;1.48;;;;;;;25.51;36.83;101253.50;5057982;28;20039;-83
2022/09/02 09:18:17;;;;;;;4.25;1.27;;;;;;;26.17;36.57;101253.50;5080799;28;20028;-84
2022/09/02 09:20:43;;;;;;;8.25;1.23;;;;;;;26.10;35.86;101250.25;5064961;28;20043;-87
2022/09/02 09:23:28;;;;;;;4.20;1.23;;;;;;;26.21;34.73;101255.41;5063901;28;20032;-84
2022/09/02 09:26:04;;;;;;;3.75;1.15;;;;;;;25.78;35.57;101243.72;5072604;28;20032;-83
2022/09/02 09:28:30;;;;;;;3.60;1.13;;;;;;;25.97;35.82;101246.91;5079322;28;20051;-84
2022/09/02 09:30:59;;;;;;;2.40;1.70;;;;;;;26.15;35.58;101247.66;5074046;28;20040;-82
2022/09/02 09:33:25;;;;;;;5.93;1.10;;;;;;;26.11;35.74;101233.25;5065515;28;20385;-84
2022/09/02 09:35:53;;;;;;;2.70;1.45;;;;;;;26.30;34.89;101231.06;5060820;28;20035;-85
2022/09/02 09:38:35;;;;;;;5.60;1.23;;;;;;;25.90;34.90;101234.84;5060581;28;20338;-84
2022/09/02 09:41:21;;;;;;;5.07;1.13;;;;;;;26.12;35.51;101226.88;5078411;28;20047;-86
2022/09/02 09:43:47;;;;;;;3.38;1.33;;;;;;;26.25;35.16;101220.38;5068084;28;20125;-84
2022/09/02 09:46:33;;;;;;;8.55;1.10;;;;;;;26.45;34.14;101227.72;5067697;28;20024;-85
2022/09/02 09:48:59;;;;;;;9.10;1.15;;;;;;;26.44;34.85;101218.16;5075709;28;20032;-85
2022/09/02 09:51:24;;;;;;;4.30;1.33;;;;;;;26.46;34.30;101222.16;5069108;28;20035;-84
2022/09/02 09:53:50;;;;;;;6.03;1.25;;;;;;;26.50;35.19;101225.91;5065442;28;20028;-86
2022/09/02 09:56:15;;;;;;;4.13;1.15;;;;;;;26.53;34.65;101221.97;5068481;28;20065;-84
2022/09/02 09:58:44;;;;;;;2.65;1.42;;;;;;;26.87;34.65;101214.56;5072250;28;20058;-84
2022/09/02 10:01:16;;;;;;;2.60;1.20;;;;;;;27.08;33.54;101215.47;5054714;28;20032;-85
2022/09/02 10:03:59;;;;;;;5.15;1.35;;;;;;;26.67;34.27;101209.06;5054426;28;20032;-84
2022/09/02 10:06:31;;;;;;;7.00;1.70;;;;;;;26.79;34.48;101209.72;5072429;28;20070;-85
2022/09/02 10:09:06;;;;;;;7.68;1.17;;;;;;;26.93;34.95;101215.38;5068046;28;20552;-86
2022/09/02 10:11:35;;;;;;;6.38;1.10;;;;;;;26.64;34.20;101218.38;5075042;28;20032;-84
2022/09/02 10:14:04;;;;;;;4.53;1.20;;;;;;;26.44;34.19;101223.47;5077094;28;20055;-84
2022/09/02 10:16:48;;;;;;;11.98;1.65;;;;;;;26.55;34.06;101206.56;5072487;28;20097;-87
2022/09/02 10:19:38;;;;;;;4.40;1.45;;;;;;;26.61;33.62;101203.72;5055756;28;20654;-84
2022/09/02 10:22:07;;;;;;;8.80;1.10;;;;;;;26.97;33.47;101203.16;5074492;28;20621;-85
2022/09/02 10:24:51;;;;;;;5.15;1.00;;;;;;;26.65;32.68;101198.69;5063035;28;20554;-85
2022/09/02 10:27:30;;;;;;;2.15;1.08;;;;;;;26.58;33.46;101209.53;5071615;28;20785;-84
2022/09/02 10:30:14;;;;;;;2.17;1.10;;;;;;;26.47;32.54;101201.72;5058226;28;20027;-84
2022/09/02 10:32:54;;;;;;;1.80;1.20;;;;;;;26.68;32.17;101194.75;5069343;28;20570;-86
2022/09/02 10:35:44;;;;;;;7.63;1.27;;;;;;;26.82;31.95;101179.94;5067173;28;20082;-85
2022/09/02 10:38:25;;;;;;;8.23;1.17;;;;;;;26.96;31.31;101189.06;5062758;28;20059;-85
2022/09/02 10:41:05;;;;;;;1.00;0.90;;;;;;;26.68;31.52;101184.88;5074000;28;20038;-86
2022/09/02 10:43:37;;;;;;;2.65;1.00;;;;;;;26.59;31.52;101181.06;5071310;28;20062;-86
2022/09/02 10:46:09;;;;;;;6.63;1.25;;;;;;;26.87;31.53;101179.19;5061544;28;20532;-85
2022/09/02 10:48:52;;;;;;;1.58;1.00;;;;;;;27.26;31.54;101187.69;5063090;28;20028;-84
2022/09/02 10:51:27;;;;;;;5.07;1.05;;;;;;;27.38;29.99;101163.50;5055679;28;20115;-84
2022/09/02 10:53:59;;;;;;;9.52;1.52;;;;;;;27.33;29.74;101177.63;5052706;28;20063;-84
2022/09/02 10:56:32;;;;;;;5.55;1.42;;;;;;;26.79;29.77;101180.47;5046585;28;20039;-85
2022/09/02 10:59:11;;;;;;;4.38;1.00;;;;;;;26.67;29.84;101172.63;5066819;28;20048;-85
2022/09/02 11:01:45;;;;;;;3.38;1.10;;;;;;;26.93;29.41;101170.16;5056073;28;20044;-85
2022/09/02 11:04:38;;;;;;;6.32;1.00;;;;;;;26.69;28.88;101173.22;5047662;28;20042;-86
2022/09/02 11:07:09;;;;;;;1.55;0.75;;;;;;;26.47;29.91;101159.97;5070876;28;20452;-87
2022/09/02 11:09:47;;;;;;;3.50;1.00;;;;;;;26.69;28.95;101164.41;5075357;28;20058;-84
2022/09/02 11:12:24;;;;;;;3.47;1.08;;;;;;;26.41;29.16;101155.69;5070713;28;20040;-88
2022/09/02 11:15:16;;;;;;;9.90;2.03;;;;;;;26.44;29.27;101165.78;5057494;28;20084;-86
2022/09/02 11:17:54;;;;;;;2.30;0.98;;;;;;;26.72;28.56;101159.38;5077752;28;20035;-87
2022/09/02 11:20:33;;;;;;;3.80;1.10;;;;;;;26.76;27.67;101152.50;5059734;28;20061;-86
2022/09/02 11:23:16;;;;;;;1.63;0.77;;;;;;;26.91;28.09;101146.47;5063956;28;20098;-85
2022/09/02 11:25:46;;;;;;;3.78;1.00;;;;;;;26.80;28.71;101142.97;5072287;28;20029;-87
2022/09/02 11:28:23;;;;;;;2.00;0.65;;;;;;;26.32;29.15;101163.31;5062387;28;20114;-84
2022/09/02 11:31:02;;;;;;;1.15;0.90;;;;;;;26.16;29.58;101150.94;5057229;28;20031;-86
2022/09/02 11:33:37;;;;;;;3.22;0.85;;;;;;;26.36;29.44;101135.16;5056435;28;20043;-85
2022/09/02 11:36:02;;;;;;;1.55;0.93;;;;;;;26.55;29.20;101140.88;5059366;28;20035;-85
2022/09/02 11:38:53;;;;;;;2.13;1.15;;;;;;;26.74;29.22;101143.19;5072010;28;20028;-87
2022/09/02 11:41:25;;;;;;;3.90;0.98;;;;;;;26.92;28.69;101128.69;5076404;28;20039;-85